Flight Track Log - Related Links

Times and Time Zones

All times are in EST time to prevent confusion due to time zone crossing. See the AMF1324 flight status page for this flight to view local times or setup timezone preferences in your user account.

Time Position Orientation Groundspeed Altitude Reporting Facility
EST Latitude Longitude Course Direction KTS MPH feet Rate Location/Type
Tue 07:55:11 AM 42.1628 -75.7422 290° West 127 146 9,000  Level New York Center
Tue 07:57:00 AM 42.1853 -75.8237 290° West  Level Estimated
Tue 08:04:00 AM 42.2715 -76.1384 290° West  Level Estimated
Tue 08:05:00 AM 42.2837 -76.1834 290° West  Level Estimated
Tue 08:06:00 AM 42.2960 -76.2284 290° West  Level Estimated
Tue 08:07:00 AM 42.3082 -76.2735 290° West  Level Estimated
Tue 08:08:00 AM 42.3204 -76.3186 290° West  Level Estimated
Tue 08:09:00 AM 42.3325 -76.3637 290° West  Level Estimated
Tue 08:10:00 AM 42.3447 -76.4088 290° West  Level Estimated
Tue 08:11:00 AM 42.3568 -76.4539 290° West  Level Estimated
Tue 08:12:00 AM 42.3689 -76.4990 290° West  Level Estimated
Tue 08:13:00 AM 42.3810 -76.5442 290° West  Level Estimated
Tue 08:14:00 AM 42.3931 -76.5894 290° West  Level Estimated
Tue 08:15:00 AM 42.4052 -76.6346 290° West  Level Estimated
Tue 08:16:00 AM 42.4172 -76.6798 290° West  Level Estimated
Tue 08:17:00 AM 42.4293 -76.7250 290° West  Level Estimated
Tue 08:18:00 AM 42.4413 -76.7703 290° West  Level Estimated
Tue 08:19:00 AM 42.4533 -76.8155 290° West  Level Estimated
Tue 08:20:00 AM 42.4652 -76.8608 290° West  Level Estimated
Tue 08:21:00 AM 42.4772 -76.9061 290° West  Level Estimated
Tue 08:22:00 AM 42.4892 -76.9514 290° West  Level Estimated
Tue 08:23:00 AM 42.5011 -76.9968 290° West  Level Estimated
Tue 08:24:00 AM 42.5130 -77.0421 290° West  Level Estimated
Tue 08:25:00 AM 42.5249 -77.0875 290° West  Level Estimated
Tue 08:26:00 AM 42.5367 -77.1329 290° West  Level Estimated
Tue 08:27:00 AM 42.5486 -77.1783 290° West  Level Estimated
Tue 08:28:00 AM 42.5604 -77.2237 289° West  Level Estimated
Tue 08:29:00 AM 42.5722 -77.2691 289° West  Level Estimated
Tue 08:30:00 AM 42.5840 -77.3146 289° West  Level Estimated
Tue 08:31:00 AM 42.5958 -77.3600 289° West  Level Estimated
Tue 08:32:00 AM 42.6076 -77.4055 289° West  Level Estimated
Tue 08:33:00 AM 42.6193 -77.4510 289° West  Level Estimated
Tue 08:34:00 AM 42.6311 -77.4966 289° West  Level Estimated
Tue 08:35:00 AM 42.6428 -77.5421 289° West  Level Estimated
Tue 08:36:00 AM 42.6544 -77.5877 289° West  Level Estimated
Tue 08:37:00 AM 42.6661 -77.6332 289° West  Level Estimated
Tue 08:38:00 AM 42.6778 -77.6788 289° West  Level Estimated
Tue 08:39:00 AM 42.6894 -77.7244 289° West  Level Estimated
Tue 08:40:00 AM 42.7010 -77.7701 289° West  Level Estimated
Tue 08:41:00 AM 42.7126 -77.8157 289° West  Level Estimated
Tue 08:42:00 AM 42.7242 -77.8614 289° West  Level Estimated
Tue 08:43:00 AM 42.7358 -77.9071 289° West  Level Estimated
Tue 08:44:00 AM 42.7473 -77.9527 289° West  Level Estimated
Tue 08:45:00 AM 42.7589 -77.9985 289° West  Level Estimated
Tue 08:46:00 AM 42.7704 -78.0442 289° West  Level Estimated
Tue 08:47:00 AM 42.7818 -78.0899 289° West  Level Estimated
Tue 08:48:00 AM 42.7933 -78.1357 289° West  Level Estimated
Tue 08:49:00 AM 42.8048 -78.1815 289° West  Level Estimated
Tue 08:50:00 AM 42.8162 -78.2273 289° West  Level Estimated
Tue 08:51:00 AM 42.8276 -78.2731 289° West  Level Estimated
Tue 08:52:00 AM 42.8390 -78.3189 289° West  Level Estimated
Tue 08:53:00 AM 42.8504 -78.3648 289° West  Level Estimated
Tue 08:54:00 AM 42.8618 -78.4106 289° West  Level Estimated
Tue 08:55:00 AM 42.8731 -78.4565 289° West  Level Estimated
Tue 08:56:00 AM 42.8844 -78.5024 289° West  Level Estimated
Tue 08:56:14 AM 42.2719 -76.1578 289° West 173 199 9,100  Level Cleveland Center
Tue 08:57:00 AM 42.8957 -78.5483 289° West  Level Estimated
Tue 08:57:17 AM 42.2939 -76.2200 296° West 181 208 11,500  Level Cleveland Center
Tue 08:58:00 AM 42.9070 -78.5942 289° West  Level Estimated
Tue 08:58:19 AM 42.3169 -76.2786 298° West 179 206 12,000  Level Cleveland Center
Tue 08:59:00 AM 42.9183 -78.6402 289° West  Level Estimated
Tue 08:59:20 AM 42.3453 -76.3578 296° West 224 258 12,000  Level Cleveland Center
Tue 09:00:00 AM 42.9296 -78.6861 289° West  Level Estimated
Tue 09:00:23 AM 42.3756 -76.4353 298° West 228 262 12,000  Level Cleveland Center
Tue 09:01:24 AM 42.4147 -76.5219 301° West 227 261 11,900  Descending Cleveland Center
Tue 09:02:26 AM 42.4458 -76.5956 300° West 228 262 12,000 48 Climbing Cleveland Center
Tue 09:03:28 AM 42.4767 -76.6694 300° West 228 262 12,000 -48 Level Cleveland Center
Tue 09:04:30 AM 42.5047 -76.7447 297° West 226 260 11,900 -48 Descending Cleveland Center
Tue 09:05:32 AM 42.5311 -76.8244 294° West 232 267 11,900  Level Cleveland Center
Tue 09:06:34 AM 42.5600 -76.9039 296° West 234 269 11,900  Level Cleveland Center
Tue 09:07:36 AM 42.5883 -77.0017 292° West 237 273 11,900 48 Level Cleveland Center
Tue 09:08:38 AM 42.6056 -77.0881 285° West 237 273 12,000 48 Climbing Cleveland Center
Tue 09:09:40 AM 42.6267 -77.1736 289° West 239 275 12,000 48 Level Cleveland Center
Tue 09:10:42 AM 42.6403 -77.2631 282° West 242 278 12,100  Climbing Cleveland Center
Tue 09:11:44 AM 42.6558 -77.3517 283° West 242 278 12,000 -48 Descending Cleveland Center
Tue 09:12:46 AM 42.6744 -77.4375 286° West 240 276 12,000  Level Cleveland Center
Tue 09:13:48 AM 42.6953 -77.5431 285° West 244 281 12,000  Level Cleveland Center
Tue 09:14:50 AM 42.7094 -77.6297 283° West 241 277 12,000  Level Cleveland Center
Tue 09:15:52 AM 42.7228 -77.7156 282° West 239 275 12,000  Level Cleveland Center
Tue 09:16:54 AM 42.7394 -77.8031 285° West 241 277 12,000 -484 Level Cleveland Center
Tue 09:17:56 AM 42.7622 -77.9158 285° West 257 296 11,000 -545 Descending Cleveland Center
Tue 09:18:44 AM 42.7764 -77.9892 285° West 244 281 11,000 97 Level Cleveland Center
Tue 09:18:58 AM 42.7783 -78.0044 280° West 243 280 11,100 -1,082 Climbing Cleveland Center
Tue 09:19:45 AM 42.7928 -78.0803 285° West 244 281 9,900 -1,452 Descending Cleveland Center
Tue 09:20:00 AM 42.7958 -78.1008 281° West 246 283 9,600 -1,800 Descending Cleveland Center
Tue 09:20:45 AM 42.8097 -78.1686 286° West 246 283 8,100 -1,839 Descending Cleveland Center
Tue 09:21:02 AM 42.8142 -78.1950 283° West 246 283 7,700 -1,967 Descending Cleveland Center
Tue 09:21:46 AM 42.8264 -78.2569 285° West 241 277 6,100 -1,839 Descending Cleveland Center
Tue 09:22:04 AM 42.8294 -78.2806 280° West 241 277 5,800 -2,000 Descending Cleveland Center
Tue 09:22:46 AM 42.8414 -78.3419 285° West 226 260 4,100 -1,935 Descending Cleveland Center
Tue 09:23:06 AM 42.8422 -78.3667 273° West 222 255 3,800 -689 Descending Cleveland Center
Tue 09:23:47 AM 42.8408 -78.4167 268° West 183 211 3,400 -387 Descending Cleveland Center
Tue 09:24:08 AM 42.8403 -78.4414 268° West 187 215 3,400  Level Cleveland Center
Tue 09:24:48 AM 42.8394 -78.4828 268° West 173 199 3,400 290 Level Cleveland Center
Tue 09:25:10 AM 42.8394 -78.5103 270° West 176 203 3,700 100 Climbing Cleveland Center
Tue 09:25:48 AM 42.8481 -78.5517 286° West 192 221 3,500 -97 Descending Cleveland Center
Tue 09:26:12 AM 42.8597 -78.5781 301° West 181 208 3,600 -689 Climbing Cleveland Center
Tue 09:26:49 AM 42.8708 -78.5986 306° West 123 142 2,800 -885 Descending Cleveland Center
Tue 09:27:13 AM 42.8792 -78.6169 302° West 123 142 2,700 -333 Descending Cleveland Center
Tue 09:27:43 AM 42.8833 -78.6333 289° West 96 110 2,500 -600 Descending Buffalo TRACON
Tue 09:28:43 AM 42.9000 -78.6667 304° West 109 125 1,800 -645 Descending Buffalo TRACON
Tue 09:29:44 AM 42.9167 -78.7000 304° West 115 132 1,200 -590 Descending Buffalo TRACON
Tue 09:31:00 AM 42.9333 -78.7167 294° West  Level FlightAware Approximate
Tue 09:38:00 AM 42.9404 -78.7306 294° West  Level Estimated

Login

Don't have an account? Register now (free) for customized features, flight alerts, and more!